Time;durP1;ratioP1;P1;durP2;ratioP2;P2;SDS_P1;SDS_P2;PMS_P1;PMS_P2;Temp;Humidity;BMP_temperature;BMP_pressure;BME280_temperature;BME280_humidity;BME280_pressure;Samples;Min_cycle;Max_cycle;Signal;HPM_P1;HPM_P2
2022/04/05 00:02:00;;;;;;;16.67;2.08;;;7.00;99.90;;;;;;4951340;28;20519;-85
2022/04/05 00:04:26;;;;;;;21.73;2.50;;;6.90;99.90;;;;;;4951019;29;20062;-85
2022/04/05 00:06:51;;;;;;;21.42;2.47;;;7.00;99.90;;;;;;4935863;29;20541;-85
2022/04/05 00:09:23;;;;;;;17.73;2.50;;;7.60;99.90;;;;;;4934633;29;20054;-85
2022/04/05 00:11:49;;;;;;;13.75;2.20;;;7.10;99.90;;;;;;4935584;29;20479;-85
2022/04/05 00:14:14;;;;;;;17.52;3.20;;;7.40;99.90;;;;;;4933835;29;20051;-85
2022/04/05 00:16:40;;;;;;;16.52;2.63;;;7.80;99.90;;;;;;4951806;29;20039;-86
2022/04/05 00:19:06;;;;;;;19.27;3.22;;;7.80;99.90;;;;;;4934178;29;20039;-85
2022/04/05 00:21:41;;;;;;;25.88;3.08;;;7.80;99.90;;;;;;4951495;29;20575;-85
2022/04/05 00:24:07;;;;;;;19.88;2.70;;;6.90;99.90;;;;;;4934725;29;20487;-85
2022/04/05 00:26:34;;;;;;;15.05;2.35;;;7.00;99.90;;;;;;4934612;29;20106;-85
2022/04/05 00:28:59;;;;;;;19.40;2.65;;;7.50;99.90;;;;;;4949450;29;20590;-85
2022/04/05 00:31:25;;;;;;;16.88;2.70;;;7.70;99.90;;;;;;4934705;29;20061;-85
2022/04/05 00:33:51;;;;;;;26.08;2.92;;;7.90;99.90;;;;;;4934290;29;20090;-85
2022/04/05 00:36:16;;;;;;;18.63;3.10;;;7.40;99.90;;;;;;4950270;28;20047;-85
2022/04/05 00:38:42;;;;;;;13.90;2.25;;;7.50;99.90;;;;;;4935339;28;20054;-85
2022/04/05 00:41:08;;;;;;;21.92;2.83;;;7.80;99.90;;;;;;4933580;29;20047;-85
2022/04/05 00:43:33;;;;;;;22.38;2.78;;;8.10;99.90;;;;;;4935821;29;20082;-84
2022/04/05 00:45:59;;;;;;;23.08;3.08;;;7.80;99.90;;;;;;4934444;29;20053;-85
2022/04/05 00:48:47;;;;;;;20.02;3.88;;;7.10;99.90;;;;;;4934144;29;20400;-85
2022/04/05 00:51:14;;;;;;;22.10;3.08;;;6.90;99.90;;;;;;4934887;29;20043;-85
2022/04/05 00:53:44;;;;;;;24.63;2.70;;;6.90;99.90;;;;;;4933829;29;20043;-85
2022/04/05 00:56:11;;;;;;;24.30;3.78;;;7.00;99.90;;;;;;4934859;29;20081;-86
2022/04/05 00:58:38;;;;;;;29.30;2.90;;;7.40;99.90;;;;;;4934672;29;20090;-87
2022/04/05 01:01:05;;;;;;;18.80;2.80;;;8.00;99.90;;;;;;4932774;29;20047;-86
2022/04/05 01:03:32;;;;;;;25.40;3.90;;;6.90;99.90;;;;;;4935190;29;20043;-86
2022/04/05 01:06:01;;;;;;;26.40;2.65;;;6.90;99.90;;;;;;4949972;29;20130;-85
2022/04/05 01:08:28;;;;;;;19.40;2.40;;;6.80;99.90;;;;;;4949684;29;20097;-87
2022/04/05 01:10:55;;;;;;;31.92;4.22;;;6.90;99.90;;;;;;4933352;28;20046;-86
2022/04/05 01:13:21;;;;;;;25.15;2.90;;;6.80;99.90;;;;;;4934530;29;20492;-85
2022/04/05 01:15:46;;;;;;;20.80;2.85;;;6.80;99.90;;;;;;4949017;29;20047;-87
2022/04/05 01:18:13;;;;;;;22.67;3.13;;;7.40;99.90;;;;;;4934628;29;20426;-86
2022/04/05 01:20:51;;;;;;;23.60;3.03;;;6.80;99.90;;;;;;4934878;29;20396;-86
2022/04/05 01:23:22;;;;;;;16.75;2.22;;;6.70;99.90;;;;;;4934308;29;20125;-86
2022/04/05 01:25:47;;;;;;;17.58;2.58;;;7.60;99.90;;;;;;4934161;29;20085;-86
2022/04/05 01:28:14;;;;;;;18.88;3.35;;;6.90;99.90;;;;;;4949804;29;20079;-86
2022/04/05 01:30:40;;;;;;;12.43;1.95;;;6.60;99.90;;;;;;4948678;29;20035;-86
2022/04/05 01:33:08;;;;;;;15.20;2.20;;;6.40;99.90;;;;;;4950157;28;20055;-86
2022/04/05 01:35:34;;;;;;;14.20;2.15;;;7.80;99.90;;;;;;4933449;29;20050;-85
2022/04/05 01:38:02;;;;;;;22.80;2.00;;;7.00;99.90;;;;;;4933720;29;20047;-84
2022/04/05 01:40:28;;;;;;;15.35;1.90;;;7.20;99.90;;;;;;4933232;29;20062;-84
2022/04/05 01:43:03;;;;;;;16.42;2.10;;;7.30;99.90;;;;;;4948790;29;20047;-84
2022/04/05 01:45:29;;;;;;;18.52;2.30;;;7.00;99.90;;;;;;4932303;29;20043;-84
2022/04/05 01:47:55;;;;;;;21.25;2.65;;;6.40;99.90;;;;;;4949614;29;20554;-84
2022/04/05 01:50:21;;;;;;;29.13;3.70;;;6.80;99.90;;;;;;4948321;29;20039;-84
2022/04/05 01:52:46;;;;;;;21.50;2.00;;;7.30;99.90;;;;;;4949197;29;20086;-84
2022/04/05 01:55:12;;;;;;;14.77;2.75;;;7.30;99.90;;;;;;4933018;29;20478;-85
2022/04/05 01:57:38;;;;;;;17.77;2.17;;;6.70;99.90;;;;;;4933019;29;20035;-85
2022/04/05 02:00:06;;;;;;;18.35;2.22;;;6.30;99.90;;;;;;4932196;28;20133;-84
2022/04/05 02:02:32;;;;;;;17.88;2.75;;;6.20;99.90;;;;;;4933695;29;20439;-86
2022/04/05 02:04:57;;;;;;;20.40;2.15;;;6.20;99.90;;;;;;4948814;29;20047;-85
2022/04/05 02:07:23;;;;;;;23.83;2.60;;;6.60;99.90;;;;;;4949247;29;20495;-85
2022/04/05 02:09:49;;;;;;;18.63;2.88;;;6.20;99.90;;;;;;4948750;29;20499;-84
2022/04/05 02:12:18;;;;;;;18.60;3.05;;;6.20;99.90;;;;;;4932425;29;20055;-85
2022/04/05 02:14:44;;;;;;;16.67;2.28;;;6.10;99.90;;;;;;4932404;29;20138;-84
2022/04/05 02:17:11;;;;;;;22.05;2.80;;;6.20;99.90;;;;;;4932591;29;20043;-85
2022/04/05 02:19:38;;;;;;;23.48;3.42;;;6.80;99.90;;;;;;4932672;29;20062;-84
2022/04/05 02:22:05;;;;;;;21.17;2.45;;;6.20;99.90;;;;;;4948566;28;20047;-85
2022/04/05 02:24:31;;;;;;;21.60;3.15;;;6.20;99.90;;;;;;4932819;29;20043;-85
2022/04/05 02:26:56;;;;;;;21.58;2.75;;;6.40;99.90;;;;;;4932258;29;20067;-84
2022/04/05 02:29:22;;;;;;;28.63;2.75;;;6.20;99.90;;;;;;4932120;29;20101;-85
2022/04/05 02:31:47;;;;;;;20.35;3.28;;;7.00;99.90;;;;;;4932514;29;20515;-85
2022/04/05 02:34:13;;;;;;;23.73;3.47;;;6.20;99.90;;;;;;4931888;29;20051;-84
2022/04/05 02:36:39;;;;;;;22.35;2.85;;;6.20;99.90;;;;;;4933064;29;20051;-84
2022/04/05 02:39:06;;;;;;;25.38;3.25;;;6.70;99.90;;;;;;4931865;29;20093;-85
2022/04/05 02:41:32;;;;;;;26.90;3.10;;;6.60;99.90;;;;;;4948824;29;20498;-85
2022/04/05 02:43:59;;;;;;;24.83;3.50;;;6.20;99.90;;;;;;4932371;29;20051;-85
2022/04/05 02:46:26;;;;;;;38.30;4.00;;;6.20;99.90;;;;;;4931845;29;20554;-84
2022/04/05 02:48:54;;;;;;;28.58;2.83;;;6.20;99.90;;;;;;4932919;29;20530;-84
2022/04/05 02:51:21;;;;;;;21.67;2.72;;;6.20;99.90;;;;;;4932315;29;20502;-84
2022/04/05 02:53:47;;;;;;;29.08;4.18;;;6.20;99.90;;;;;;4932155;29;20107;-85
2022/04/05 02:56:14;;;;;;;29.05;3.72;;;6.20;99.90;;;;;;4932421;29;20078;-85
2022/04/05 02:58:40;;;;;;;26.50;3.20;;;6.20;99.90;;;;;;4949059;29;20090;-84
2022/04/05 03:01:06;;;;;;;20.70;2.97;;;6.20;99.90;;;;;;4947264;29;20051;-85
2022/04/05 03:03:32;;;;;;;26.50;4.38;;;6.20;99.90;;;;;;4932367;29;20055;-85
2022/04/05 03:05:58;;;;;;;30.30;3.95;;;6.80;99.90;;;;;;4932541;29;20570;-85
2022/04/05 03:08:24;;;;;;;26.95;3.67;;;6.20;99.90;;;;;;4947473;29;20048;-84
2022/04/05 03:10:50;;;;;;;25.77;3.38;;;6.90;99.90;;;;;;4932333;28;20158;-84
2022/04/05 03:13:15;;;;;;;30.38;3.05;;;6.50;99.90;;;;;;4931681;29;20113;-85
2022/04/05 03:15:41;;;;;;;26.52;2.83;;;6.20;99.90;;;;;;4947256;29;20051;-85
2022/04/05 03:18:07;;;;;;;20.95;2.55;;;6.20;99.90;;;;;;4932805;29;20495;-84
2022/04/05 03:20:33;;;;;;;27.73;2.70;;;6.00;99.90;;;;;;4947667;29;20047;-84
2022/04/05 03:23:00;;;;;;;21.92;3.03;;;6.50;99.90;;;;;;4932420;29;20058;-85
2022/04/05 03:25:30;;;;;;;25.70;2.88;;;6.20;99.90;;;;;;4948065;29;20109;-84
2022/04/05 03:27:55;;;;;;;25.05;2.92;;;6.30;99.90;;;;;;4948494;29;20054;-84
2022/04/05 03:30:22;;;;;;;31.05;4.38;;;6.30;99.90;;;;;;4930516;29;20053;-85
2022/04/05 03:32:49;;;;;;;28.63;2.67;;;6.10;99.90;;;;;;4948263;28;20097;-85
2022/04/05 03:35:14;;;;;;;29.70;3.45;;;6.80;99.90;;;;;;4934748;29;20066;-87
2022/04/05 03:37:41;;;;;;;22.52;2.97;;;6.10;99.90;;;;;;4952700;29;20043;-86
2022/04/05 03:40:08;;;;;;;22.40;2.33;;;6.10;99.90;;;;;;4952582;29;20047;-86
2022/04/05 03:42:34;;;;;;;26.23;3.42;;;6.10;99.90;;;;;;4935943;29;20047;-86
2022/04/05 03:45:00;;;;;;;29.13;4.03;;;6.00;99.90;;;;;;4951046;29;20483;-86
2022/04/05 03:47:27;;;;;;;23.00;2.67;;;6.90;99.90;;;;;;4936209;29;20047;-86
2022/04/05 03:49:53;;;;;;;16.48;2.17;;;6.00;99.90;;;;;;4950961;29;20039;-86
2022/04/05 03:52:19;;;;;;;22.35;2.58;;;6.00;99.90;;;;;;4935449;29;20676;-85
2022/04/05 03:54:46;;;;;;;25.08;3.13;;;6.00;99.90;;;;;;4935301;29;20129;-86
2022/04/05 03:57:11;;;;;;;23.27;2.35;;;6.80;99.90;;;;;;4934438;29;20043;-84
2022/04/05 03:59:37;;;;;;;24.25;2.88;;;6.30;99.90;;;;;;4934552;29;20055;-84
2022/04/05 04:02:04;;;;;;;24.23;2.60;;;6.00;99.90;;;;;;4935310;29;20043;-85
2022/04/05 04:04:30;;;;;;;20.15;2.90;;;6.00;99.90;;;;;;4951229;29;20465;-84
2022/04/05 04:06:56;;;;;;;21.15;2.15;;;6.00;99.90;;;;;;4951364;29;20043;-84
2022/04/05 04:09:22;;;;;;;26.70;3.55;;;6.00;99.90;;;;;;4934826;29;20047;-84
2022/04/05 04:11:48;;;;;;;22.55;3.15;;;6.00;99.90;;;;;;4935476;29;20047;-84
2022/04/05 04:14:14;;;;;;;17.58;2.20;;;6.00;99.90;;;;;;4933990;29;20063;-85
2022/04/05 04:16:39;;;;;;;25.73;2.88;;;6.00;99.90;;;;;;4935613;29;20047;-84
2022/04/05 04:19:05;;;;;;;24.70;2.78;;;6.00;99.90;;;;;;4934699;29;20058;-84
2022/04/05 04:21:31;;;;;;;25.27;2.90;;;6.00;99.90;;;;;;4935750;29;20508;-84
2022/04/05 04:23:57;;;;;;;19.40;2.38;;;6.20;99.90;;;;;;4935068;29;20487;-84
2022/04/05 04:26:23;;;;;;;23.73;3.63;;;6.00;99.90;;;;;;4934440;29;20078;-85
2022/04/05 04:28:55;;;;;;;25.60;3.40;;;6.30;99.90;;;;;;4934845;29;20464;-84
2022/04/05 04:31:21;;;;;;;19.27;2.67;;;6.00;99.90;;;;;;4950567;28;20047;-87
2022/04/05 04:33:46;;;;;;;23.20;2.90;;;6.70;99.90;;;;;;4935860;29;20059;-87
2022/04/05 04:36:13;;;;;;;22.15;2.85;;;5.90;99.90;;;;;;4935910;29;20047;-88
2022/04/05 04:38:38;;;;;;;20.58;3.10;;;5.90;99.90;;;;;;4949535;28;20569;-86
2022/04/05 04:41:04;;;;;;;24.08;3.20;;;5.90;99.90;;;;;;4953465;28;20047;-85
2022/04/05 04:43:30;;;;;;;25.50;3.08;;;5.90;99.90;;;;;;4970237;28;20531;-85
2022/04/05 04:45:55;;;;;;;19.00;2.60;;;5.90;99.90;;;;;;4953354;28;20054;-85
2022/04/05 04:48:29;;;;;;;23.63;2.63;;;5.90;99.90;;;;;;4953474;28;20072;-86
2022/04/05 04:50:55;;;;;;;22.25;3.28;;;5.90;99.90;;;;;;4955570;28;20152;-85
2022/04/05 04:53:20;;;;;;;23.85;3.03;;;6.10;99.90;;;;;;4952956;28;20487;-86
2022/04/05 04:55:46;;;;;;;27.92;4.32;;;6.90;99.90;;;;;;4954135;28;20051;-85
2022/04/05 04:58:13;;;;;;;21.73;3.22;;;6.80;99.90;;;;;;4952841;28;20054;-84
2022/04/05 05:00:50;;;;;;;24.58;2.92;;;6.00;99.90;;;;;;4952192;28;20047;-85
2022/04/05 05:03:18;;;;;;;23.08;2.85;;;5.80;99.90;;;;;;4953377;28;20043;-86
2022/04/05 05:05:44;;;;;;;31.63;3.28;;;6.70;99.90;;;;;;4953838;28;20455;-85
2022/04/05 05:08:10;;;;;;;24.85;3.55;;;7.20;99.90;;;;;;4968509;28;20047;-86
2022/04/05 05:10:48;;;;;;;24.45;3.65;;;6.60;99.90;;;;;;4970334;28;20133;-86
2022/04/05 05:13:14;;;;;;;23.75;4.05;;;7.00;99.90;;;;;;4934378;29;20051;-86
2022/04/05 05:15:39;;;;;;;19.17;2.80;;;5.90;99.90;;;;;;4933489;29;20046;-85
2022/04/05 05:18:05;;;;;;;24.65;3.20;;;7.20;99.90;;;;;;4950331;29;20058;-85
2022/04/05 05:20:43;;;;;;;32.05;3.15;;;6.00;99.90;;;;;;4933764;29;20075;-86
2022/04/05 05:23:09;;;;;;;27.17;2.78;;;6.80;99.90;;;;;;4934658;29;20066;-85
2022/04/05 05:25:34;;;;;;;29.75;3.83;;;6.60;99.90;;;;;;4934226;29;20047;-84
2022/04/05 05:28:01;;;;;;;26.52;2.92;;;6.70;99.90;;;;;;4933095;29;20051;-85
2022/04/05 05:30:26;;;;;;;27.55;2.88;;;6.20;99.90;;;;;;4948622;28;20062;-84
2022/04/05 05:33:18;;;;;;;27.88;4.07;;;5.40;99.90;;;;;;4951150;28;20169;-84
2022/04/05 05:35:43;;;;;;;22.55;2.95;;;6.10;99.90;;;;;;4951356;28;20047;-85
2022/04/05 05:38:09;;;;;;;29.42;3.03;;;6.70;99.90;;;;;;4952024;28;20458;-85
2022/04/05 05:40:37;;;;;;;18.13;2.97;;;6.10;99.90;;;;;;4953154;28;20105;-86
2022/04/05 05:43:04;;;;;;;26.17;3.70;;;6.20;99.90;;;;;;4968708;28;20043;-86
2022/04/05 05:45:32;;;;;;;26.33;3.10;;;6.20;99.90;;;;;;4952260;28;20129;-87
2022/04/05 05:47:58;;;;;;;29.40;3.08;;;6.30;99.90;;;;;;4953688;28;20046;-86
2022/04/05 05:50:37;;;;;;;26.33;3.33;;;7.30;99.90;;;;;;4967727;28;20046;-86
2022/04/05 05:53:04;;;;;;;25.25;3.25;;;6.30;99.90;;;;;;4952909;28;20050;-87
2022/04/05 05:55:30;;;;;;;26.52;3.47;;;6.30;99.90;;;;;;4950360;28;20138;-85
2022/04/05 05:57:56;;;;;;;21.10;2.88;;;6.30;99.90;;;;;;4945285;28;20134;-85
2022/04/05 06:00:22;;;;;;;20.20;2.90;;;6.70;99.90;;;;;;4948279;28;20039;-86
2022/04/05 06:03:00;;;;;;;36.70;3.63;;;6.80;99.90;;;;;;4946250;28;20043;-85
2022/04/05 06:05:26;;;;;;;19.20;3.60;;;6.50;99.90;;;;;;4947414;28;20077;-85
2022/04/05 06:07:52;;;;;;;31.63;3.38;;;7.30;99.90;;;;;;4950059;28;20540;-85
2022/04/05 06:10:20;;;;;;;24.67;3.15;;;6.00;99.90;;;;;;4948838;28;20051;-86
2022/04/05 06:12:48;;;;;;;22.40;2.90;;;6.70;99.90;;;;;;4968710;28;20490;-84
2022/04/05 06:15:15;;;;;;;26.13;3.92;;;7.20;99.90;;;;;;4948654;28;20141;-85
2022/04/05 06:18:07;;;;;;;25.33;3.20;;;6.60;99.90;;;;;;4949913;28;20134;-85
2022/04/05 06:20:33;;;;;;;16.17;2.53;;;6.10;99.90;;;;;;4964806;28;20058;-85
2022/04/05 06:23:07;;;;;;;21.45;3.17;;;7.50;99.90;;;;;;4949926;28;20050;-85
2022/04/05 06:25:35;;;;;;;21.05;3.97;;;6.60;99.90;;;;;;4949002;28;20061;-85
2022/04/05 06:28:04;;;;;;;17.42;2.45;;;7.60;99.90;;;;;;4944637;28;20469;-85
2022/04/05 06:30:32;;;;;;;26.25;3.35;;;6.70;99.90;;;;;;4948113;28;20468;-84
2022/04/05 06:33:08;;;;;;;22.67;2.58;;;7.50;99.90;;;;;;4948464;28;20066;-85
2022/04/05 06:35:36;;;;;;;21.20;2.90;;;6.80;99.90;;;;;;4963167;28;20061;-85
2022/04/05 06:38:02;;;;;;;26.08;5.28;;;7.30;99.90;;;;;;4948874;28;20055;-85
2022/04/05 06:40:34;;;;;;;26.10;3.10;;;7.60;99.90;;;;;;4949014;28;20058;-84
2022/04/05 06:42:59;;;;;;;25.77;4.00;;;7.60;99.90;;;;;;4947330;29;20051;-85
2022/04/05 06:45:26;;;;;;;20.27;3.42;;;6.20;99.90;;;;;;4928762;29;20102;-83
2022/04/05 06:47:52;;;;;;;20.48;3.22;;;7.60;99.90;;;;;;4947058;29;20055;-85
2022/04/05 06:50:30;;;;;;;20.80;2.67;;;7.70;99.90;;;;;;4929948;29;20052;-85
2022/04/05 06:52:59;;;;;;;26.92;2.97;;;6.80;99.90;;;;;;4930230;29;20574;-84
2022/04/05 06:55:25;;;;;;;17.02;2.55;;;7.70;99.90;;;;;;4946871;29;20098;-86
2022/04/05 06:57:52;;;;;;;21.95;2.88;;;7.80;99.90;;;;;;4930865;29;20050;-86
2022/04/05 07:00:30;;;;;;;28.50;4.13;;;7.30;99.90;;;;;;4928895;29;20138;-85
2022/04/05 07:02:56;;;;;;;16.33;2.90;;;7.10;99.90;;;;;;4946132;29;20506;-85
2022/04/05 07:05:23;;;;;;;19.58;2.50;;;7.50;99.90;;;;;;4944091;28;20102;-85
2022/04/05 07:07:49;;;;;;;19.92;2.53;;;6.30;99.90;;;;;;4930063;29;20091;-84
2022/04/05 07:10:17;;;;;;;17.92;3.22;;;7.30;99.90;;;;;;4933018;29;20082;-86
2022/04/05 07:12:47;;;;;;;16.95;2.42;;;8.20;99.90;;;;;;4934016;29;20134;-86
2022/04/05 07:15:13;;;;;;;15.80;2.42;;;7.40;99.90;;;;;;4932475;29;20047;-84
2022/04/05 07:17:43;;;;;;;23.35;2.60;;;8.20;99.90;;;;;;4962072;28;20522;-84
2022/04/05 07:20:09;;;;;;;22.48;3.03;;;7.60;99.90;;;;;;4952880;28;20158;-84
2022/04/05 07:22:51;;;;;;;24.20;3.20;;;7.60;99.90;;;;;;4970498;28;20062;-84
2022/04/05 07:25:20;;;;;;;22.05;2.80;;;7.60;99.90;;;;;;4953853;28;20034;-84
2022/04/05 07:27:47;;;;;;;18.77;2.17;;;8.20;99.90;;;;;;4967570;28;20101;-85
2022/04/05 07:30:24;;;;;;;16.52;2.33;;;8.50;99.90;;;;;;4969182;28;20046;-84
2022/04/05 07:32:50;;;;;;;14.65;3.25;;;7.60;99.90;;;;;;4952389;28;20047;-84
2022/04/05 07:35:17;;;;;;;15.20;2.95;;;8.70;99.90;;;;;;4953373;28;20053;-85
2022/04/05 07:37:43;;;;;;;15.82;2.65;;;8.40;99.90;;;;;;4953931;28;20126;-84
2022/04/05 07:40:10;;;;;;;21.15;3.05;;;7.60;99.90;;;;;;4953019;28;20129;-83
2022/04/05 07:42:37;;;;;;;19.75;2.80;;;7.60;99.90;;;;;;4977435;28;20039;-83
2022/04/05 07:45:04;;;;;;;18.25;2.40;;;7.90;99.90;;;;;;4952661;28;20105;-83
2022/04/05 07:47:30;;;;;;;21.48;2.85;;;7.50;99.90;;;;;;4977428;28;20051;-85
2022/04/05 07:49:55;;;;;;;19.05;2.90;;;8.40;99.90;;;;;;4969099;28;20034;-84
2022/04/05 07:52:21;;;;;;;16.60;2.95;;;7.80;99.90;;;;;;4984052;28;20047;-84
2022/04/05 07:54:55;;;;;;;16.40;2.88;;;8.40;99.90;;;;;;4975988;28;20039;-84
2022/04/05 07:57:21;;;;;;;18.38;2.85;;;7.90;99.90;;;;;;4951896;28;20093;-85
2022/04/05 07:59:47;;;;;;;11.80;2.50;;;6.90;99.90;;;;;;4976021;28;20051;-85
2022/04/05 08:02:13;;;;;;;18.65;4.05;;;8.20;99.90;;;;;;4962168;28;20050;-85
2022/04/05 08:04:38;;;;;;;14.50;2.40;;;8.30;99.90;;;;;;4969916;28;20562;-85
2022/04/05 08:07:06;;;;;;;17.98;2.50;;;7.70;99.90;;;;;;4963515;28;20038;-85
2022/04/05 08:09:32;;;;;;;18.10;2.75;;;8.20;99.90;;;;;;4978758;28;20051;-85
2022/04/05 08:11:58;;;;;;;15.30;2.63;;;7.60;99.90;;;;;;4959750;28;20077;-85
2022/04/05 08:14:27;;;;;;;14.40;2.22;;;8.70;99.90;;;;;;4957265;28;20074;-86
2022/04/05 08:17:06;;;;;;;15.32;2.55;;;8.40;99.90;;;;;;4951563;28;20086;-83
2022/04/05 08:19:32;;;;;;;14.90;2.88;;;7.80;99.90;;;;;;4952947;28;20043;-84
2022/04/05 08:21:57;;;;;;;16.50;2.65;;;7.80;99.90;;;;;;4986932;28;20054;-84
2022/04/05 08:24:23;;;;;;;16.23;2.45;;;7.80;99.90;;;;;;4969178;28;20059;-84
2022/04/05 08:27:02;;;;;;;18.50;2.67;;;7.50;99.90;;;;;;4987217;28;20138;-86
2022/04/05 08:29:28;;;;;;;13.07;2.20;;;7.90;99.90;;;;;;4985234;28;20046;-84
2022/04/05 08:31:53;;;;;;;14.50;2.95;;;8.60;99.90;;;;;;4986243;28;20084;-84
2022/04/05 08:34:19;;;;;;;12.70;2.22;;;8.90;99.90;;;;;;4953225;28;20844;-83
2022/04/05 08:36:45;;;;;;;15.40;2.08;;;9.10;99.90;;;;;;4987006;28;20367;-85
2022/04/05 08:39:10;;;;;;;13.80;2.42;;;8.00;99.90;;;;;;4979227;28;20050;-84
2022/04/05 08:41:39;;;;;;;14.20;2.75;;;8.90;99.90;;;;;;4950915;29;20035;-83
2022/04/05 08:44:06;;;;;;;17.60;2.70;;;8.20;99.90;;;;;;4950123;29;20058;-85
2022/04/05 08:46:34;;;;;;;14.15;2.15;;;8.60;99.90;;;;;;4950104;29;20415;-86
2022/04/05 08:49:21;;;;;;;13.98;3.08;;;8.40;99.90;;;;;;4965359;23;20057;-86
2022/04/05 08:51:48;;;;;;;13.75;2.75;;;8.90;99.90;;;;;;4956342;28;20050;-84
2022/04/05 08:54:14;;;;;;;16.33;3.38;;;9.40;99.90;;;;;;4956905;28;20379;-84
2022/04/05 08:56:51;;;;;;;16.20;2.58;;;9.50;99.90;;;;;;4957665;28;20105;-85
2022/04/05 08:59:17;;;;;;;13.63;2.53;;;9.60;99.90;;;;;;4955845;28;20437;-85
2022/04/05 09:01:43;;;;;;;14.65;2.58;;;8.70;99.90;;;;;;4957808;28;20482;-85
2022/04/05 09:04:10;;;;;;;12.90;2.58;;;8.70;99.90;;;;;;4972824;28;20050;-85
2022/04/05 09:06:49;;;;;;;17.63;2.72;;;8.30;99.90;;;;;;4957103;28;20050;-85
2022/04/05 09:09:17;;;;;;;13.07;2.80;;;8.90;99.90;;;;;;4956418;28;20046;-84
2022/04/05 09:11:45;;;;;;;18.13;3.60;;;9.70;99.90;;;;;;4964781;28;20097;-85
2022/04/05 09:14:11;;;;;;;16.92;2.53;;;9.90;99.90;;;;;;4952124;28;20078;-85
2022/04/05 09:16:46;;;;;;;18.48;3.28;;;9.10;99.90;;;;;;4938155;28;20533;-85
2022/04/05 09:19:13;;;;;;;22.25;2.63;;;9.60;99.90;;;;;;4936682;28;20057;-85
2022/04/05 09:22:03;;;;;;;15.75;2.65;;;9.60;99.90;;;;;;4937141;28;20038;-85
2022/04/05 09:24:35;;;;;;;12.15;2.90;;;9.00;99.90;;;;;;4937798;28;20141;-85
2022/04/05 09:27:01;;;;;;;8.95;1.98;;;9.30;99.90;;;;;;4952367;28;20113;-84
2022/04/05 09:29:42;;;;;;;13.32;2.35;;;9.80;99.90;;;;;;4936841;28;20054;-85
2022/04/05 09:32:09;;;;;;;10.27;1.95;;;9.00;99.90;;;;;;4951947;28;20578;-85
2022/04/05 09:34:50;;;;;;;9.48;1.77;;;9.10;99.90;;;;;;4936794;28;20490;-85
2022/04/05 09:37:15;;;;;;;14.52;2.35;;;9.20;99.90;;;;;;4952650;28;20047;-85
2022/04/05 09:39:41;;;;;;;9.10;2.28;;;9.60;99.90;;;;;;4936670;28;20113;-84
2022/04/05 09:42:09;;;;;;;11.98;2.42;;;9.90;99.90;;;;;;4936927;28;20057;-84
2022/04/05 09:44:39;;;;;;;8.80;1.85;;;9.40;99.90;;;;;;4935759;28;20046;-84
2022/04/05 09:47:14;;;;;;;7.70;1.65;;;9.10;99.90;;;;;;4936184;28;20576;-84
2022/04/05 09:49:41;;;;;;;6.75;1.70;;;9.10;99.90;;;;;;4935997;28;20051;-85
2022/04/05 09:52:23;;;;;;;7.38;1.60;;;9.00;99.90;;;;;;4937072;28;20094;-84
2022/04/05 09:54:49;;;;;;;6.82;1.75;;;9.00;99.90;;;;;;4952033;28;20057;-84
2022/04/05 09:57:14;;;;;;;9.82;1.70;;;9.00;99.90;;;;;;4951957;28;20035;-84
2022/04/05 09:59:43;;;;;;;9.43;1.92;;;8.90;99.90;;;;;;4935788;28;20239;-85
2022/04/05 10:02:11;;;;;;;8.82;2.15;;;8.80;99.90;;;;;;4950683;28;20511;-85
2022/04/05 10:04:59;;;;;;;8.77;1.80;;;8.70;99.90;;;;;;4936711;28;20557;-85
2022/04/05 10:07:28;;;;;;;11.63;2.15;;;8.70;99.90;;;;;;4936399;28;20042;-85
2022/04/05 10:09:54;;;;;;;14.70;3.28;;;8.70;99.90;;;;;;4936217;28;20514;-86
2022/04/05 10:12:24;;;;;;;10.07;2.53;;;8.70;99.90;;;;;;4947504;28;20058;-86
2022/04/05 10:14:49;;;;;;;15.98;2.83;;;9.40;99.90;;;;;;4935320;28;20059;-84
2022/04/05 10:17:16;;;;;;;11.65;2.75;;;9.70;99.90;;;;;;4935892;28;20105;-85
2022/04/05 10:20:06;;;;;;;7.65;2.50;;;9.70;99.90;;;;;;4952234;28;20047;-85
2022/04/05 10:22:32;;;;;;;9.98;2.42;;;9.00;99.90;;;;;;4936280;28;20133;-84
2022/04/05 10:24:58;;;;;;;6.90;2.15;;;8.90;99.90;;;;;;4951881;28;20038;-84
2022/04/05 10:27:25;;;;;;;6.15;1.70;;;8.90;99.90;;;;;;4935798;28;20081;-84
2022/04/05 10:30:20;;;;;;;8.80;2.00;;;9.20;99.90;;;;;;4964308;28;20055;-85
2022/04/05 10:33:05;;;;;;;7.30;1.88;;;9.10;99.90;;;;;;4936267;28;20043;-86
2022/04/05 10:35:35;;;;;;;6.63;2.08;;;9.60;99.90;;;;;;4935386;28;20047;-85
2022/04/05 10:38:13;;;;;;;4.15;1.48;;;9.20;99.90;;;;;;4951140;28;20125;-85
2022/04/05 10:40:38;;;;;;;7.18;1.85;;;9.20;99.90;;;;;;4936598;28;20703;-85
2022/04/05 10:43:19;;;;;;;5.53;2.22;;;10.00;99.90;;;;;;4936233;28;20514;-85
2022/04/05 10:45:45;;;;;;;4.70;1.55;;;9.20;99.90;;;;;;4951339;28;20054;-85
2022/04/05 10:48:13;;;;;;;3.88;1.60;;;9.30;99.90;;;;;;4936184;28;20109;-85
2022/04/05 10:50:42;;;;;;;6.88;1.60;;;9.20;99.90;;;;;;4951936;28;20463;-85
2022/04/05 10:53:15;;;;;;;6.93;2.05;;;9.60;99.90;;;;;;4935153;28;20047;-85
2022/04/05 10:56:02;;;;;;;5.18;1.60;;;9.60;99.90;;;;;;4952004;28;20050;-84
2022/04/05 10:58:29;;;;;;;4.05;1.23;;;9.20;99.90;;;;;;4951354;28;20056;-84
2022/04/05 11:01:18;;;;;;;4.10;1.80;;;9.30;99.90;;;;;;4935244;28;20207;-84
2022/04/05 11:04:09;;;;;;;5.40;1.52;;;9.40;99.90;;;;;;4936312;28;20117;-85
2022/04/05 11:07:01;;;;;;;5.28;1.50;;;9.50;99.90;;;;;;4951578;28;20057;-85
2022/04/05 11:09:28;;;;;;;4.47;1.30;;;9.50;99.90;;;;;;4935924;28;20069;-84
2022/04/05 11:11:54;;;;;;;6.40;1.88;;;10.00;99.90;;;;;;4935877;28;20049;-84
2022/04/05 11:14:38;;;;;;;3.67;1.15;;;9.80;99.90;;;;;;4934525;28;20086;-85
2022/04/05 11:17:07;;;;;;;5.65;1.75;;;9.40;99.90;;;;;;4935945;28;20406;-84
2022/04/05 11:19:37;;;;;;;6.55;1.70;;;9.80;99.90;;;;;;4935289;28;20406;-84
2022/04/05 11:22:05;;;;;;;3.58;1.30;;;10.20;99.90;;;;;;4935632;28;20089;-85
2022/04/05 11:24:51;;;;;;;5.95;1.85;;;9.40;99.90;;;;;;4943959;28;20043;-85
2022/04/05 11:27:37;;;;;;;4.13;1.42;;;9.30;99.90;;;;;;4969348;28;20042;-83
2022/04/05 11:30:22;;;;;;;2.42;1.30;;;9.40;99.90;;;;;;4969350;28;20057;-88
2022/04/05 11:33:12;;;;;;;2.28;1.15;;;9.40;99.90;;;;;;4954495;28;20494;-85
2022/04/05 11:35:43;;;;;;;3.13;1.35;;;9.40;99.90;;;;;;4952182;28;20070;-84
2022/04/05 11:38:26;;;;;;;3.80;1.40;;;9.40;99.90;;;;;;4971256;28;20413;-85
2022/04/05 11:41:09;;;;;;;5.82;1.60;;;9.40;99.90;;;;;;4954509;28;20038;-85
2022/04/05 11:43:41;;;;;;;3.42;1.50;;;9.60;99.90;;;;;;4954082;28;20077;-85
2022/04/05 11:46:11;;;;;;;3.33;1.52;;;9.80;99.90;;;;;;4968384;28;20375;-85
2022/04/05 11:48:49;;;;;;;3.75;1.60;;;10.00;99.90;;;;;;4953844;28;20154;-85
2022/04/05 11:51:17;;;;;;;3.78;1.30;;;9.90;99.90;;;;;;4954742;28;20134;-85
2022/04/05 11:53:45;;;;;;;3.88;1.40;;;9.90;99.90;;;;;;4969879;28;20042;-85
2022/04/05 11:56:12;;;;;;;3.83;1.58;;;9.80;99.90;;;;;;4956941;28;20046;-87
2022/04/05 11:58:42;;;;;;;4.20;1.30;;;9.70;99.90;;;;;;4973974;28;20136;-85
2022/04/05 12:01:10;;;;;;;2.72;1.00;;;9.60;99.90;;;;;;4965053;28;20406;-84
2022/04/05 12:03:48;;;;;;;1.98;1.20;;;9.50;99.90;;;;;;4938452;28;20046;-85
2022/04/05 12:06:18;;;;;;;4.57;1.58;;;10.20;99.90;;;;;;4938466;28;20050;-85
2022/04/05 12:08:46;;;;;;;3.88;1.50;;;9.60;99.90;;;;;;4945657;28;20157;-85
2022/04/05 12:11:16;;;;;;;3.05;1.55;;;9.60;99.90;;;;;;4957975;28;20051;-84
2022/04/05 12:13:52;;;;;;;3.75;1.80;;;9.90;99.90;;;;;;4957918;28;20474;-85
2022/04/05 12:16:19;;;;;;;2.72;1.40;;;10.10;99.90;;;;;;4956853;28;20046;-85
2022/04/05 12:18:46;;;;;;;3.33;1.35;;;10.90;99.90;;;;;;4958299;28;20112;-84
2022/04/05 12:21:12;;;;;;;2.55;1.42;;;11.00;99.90;;;;;;4957155;28;20042;-85
2022/04/05 12:23:41;;;;;;;2.92;1.60;;;10.90;99.90;;;;;;4957607;28;20057;-86
2022/04/05 12:26:08;;;;;;;2.05;1.20;;;10.80;99.90;;;;;;4957957;28;20097;-86
2022/04/05 12:28:37;;;;;;;2.38;1.52;;;10.90;99.90;;;;;;4957928;28;20482;-86
2022/04/05 12:31:17;;;;;;;2.05;1.17;;;11.00;99.90;;;;;;4972981;28;20042;-86
2022/04/05 12:33:56;;;;;;;1.85;1.20;;;11.90;99.90;;;;;;4957754;28;20050;-86
2022/04/05 12:36:37;;;;;;;5.53;1.60;;;11.30;99.90;;;;;;4973094;28;20482;-85
2022/04/05 12:39:06;;;;;;;1.98;1.40;;;11.70;99.90;;;;;;4968466;28;20066;-85
2022/04/05 12:41:49;;;;;;;1.95;1.30;;;11.00;99.90;;;;;;4953694;28;20465;-85
2022/04/05 12:44:19;;;;;;;2.10;1.50;;;11.00;99.90;;;;;;4935939;28;20482;-85
2022/04/05 12:46:55;;;;;;;2.05;1.33;;;11.00;99.90;;;;;;4954586;28;20238;-84
2022/04/05 12:49:24;;;;;;;2.10;1.10;;;10.50;99.90;;;;;;4936546;28;20086;-84
2022/04/05 12:51:51;;;;;;;2.10;1.30;;;11.60;99.90;;;;;;4953199;28;20102;-84
2022/04/05 12:54:31;;;;;;;2.13;1.30;;;11.80;99.90;;;;;;4953133;28;20046;-84
2022/04/05 12:57:27;;;;;;;2.58;1.55;;;10.90;99.90;;;;;;4954033;28;20066;-84
2022/04/05 13:00:07;;;;;;;2.85;1.80;;;10.90;99.90;;;;;;4936694;28;20043;-84